EDHI Airport Information

Runway Information
Runway 05 Length 8629 ft width 148 ft
Elevation 16 ft Threshold 341 ft Heading 52
Runway 23 Length 8629 ft Width 148 ft
Elevation 15 ft Threshold 2474 ft Heading 232
Airport Frequencies
Type A/D Name BREMEN RAD Frequency 124.225 MHZ
Type AFIS Name BREMEN INF Frequency 125.1 MHZ
Type ATIS Name ATIS Frequency 123.125 MHZ
Type TWR Name FINKENWERD Frequency 123.25 MHZ
Airport Navaids
Airport Weather Information & NOTAM
ADDS - METARS form results

(0500 UTC 19 October 2021)
Data provider http://aviationweather.gov/metar/data/
 
METAR text: EDHI 190450Z 21004KT 180V240 9999 FEW036 SCT042 11/09 Q1017
Conditions at: EDHI (HAMBURG/FINKENWE, DE) observed 0450 UTC 19 October 2021
Temperature: 11.0°C (52°F)
Dewpoint: 9.0°C (48°F) [RH = 87%]
Pressure (altimeter): 30.03 inches Hg (1017.0 mb)
Winds: from the SSW (210 degrees) at 5 MPH (4 knots; 2.1 m/s)
Visibility: 6 or more miles (10+ km)
Ceiling: at least 12,000 feet AGL
Clouds: few clouds at 3600 feet AGL
scattered clouds at 4200 feet AGL
Weather: no significant weather observed at this time

METAR text: EDHI 190420Z 20007KT 9999 FEW046 11/08 Q1017
Conditions at: EDHI (HAMBURG/FINKENWE, DE) observed 0420 UTC 19 October 2021
Temperature: 11.0°C (52°F)
Dewpoint: 8.0°C (46°F) [RH = 82%]
Pressure (altimeter): 30.03 inches Hg (1017.0 mb)
Winds: from the SSW (200 degrees) at 8 MPH (7 knots; 3.6 m/s)
Visibility: 6 or more miles (10+ km)
Ceiling: at least 12,000 feet AGL
Clouds: few clouds at 4600 feet AGL
Weather: no significant weather observed at this time

Forecast for: EDHI (HAMBURG/FINKENWE, DE)
Text: TAF EDHI 190300Z 1904/1912 19007KT 9000 SCT020 BKN045
Forecast period: 0400 to 1200 UTC 19 October 2021
Forecast type: FROM: standard forecast or significant change
Winds: from the S (190 degrees) at 8 MPH (7 knots; 3.6 m/s)
Visibility: 6 miles (9 km)
Ceiling: 4500 feet AGL
Clouds: scattered clouds at 2000 feet AGL
broken clouds at 4500 feet AGL
Weather: no significant weather forecast for this period
Text: PROB30
Forecast period: 1000 to 1200 UTC 19 October 2021
Forecast type: TEMPORARY: The following changes expected for less than half the time period
Visibility: missing
Ceiling: 1400 feet AGL
Clouds: broken clouds at 1400 feet AGL
Weather: no significant weather forecast for this period